createdAt,value
2022-12-12T00:00:24.485Z,100737.22
2022-12-12T00:04:36.138Z,100738.22
2022-12-12T00:08:47.760Z,100735.75
2022-12-12T00:12:59.401Z,100740.53
2022-12-12T00:17:11.026Z,100735.38
2022-12-12T00:21:25.384Z,100743.16
2022-12-12T00:25:37.052Z,100744.16
2022-12-12T00:29:53.219Z,100739.38
2022-12-12T00:34:04.828Z,100744.66
2022-12-12T00:38:29.612Z,100735.22
2022-12-12T00:42:41.282Z,100749.97
2022-12-12T00:46:52.787Z,100758.91
2022-12-12T00:51:09.626Z,100754.28
2022-12-12T00:55:21.473Z,100757.75
2022-12-12T00:59:33.077Z,100766.69
2022-12-12T01:03:45.043Z,100752.44
2022-12-12T01:07:56.620Z,100750.13
2022-12-12T01:12:08.643Z,100766.16
2022-12-12T01:16:21.811Z,100756.75
2022-12-12T01:20:33.582Z,100768.34
2022-12-12T01:24:45.173Z,100771.16
2022-12-12T01:28:56.657Z,100771.19
2022-12-12T01:33:08.212Z,100774.66
2022-12-12T01:37:19.812Z,100764.91
2022-12-12T01:41:32.189Z,100786.91
2022-12-12T01:45:55.967Z,100791.22
2022-12-12T01:50:10.436Z,100795.19
2022-12-12T01:54:30.949Z,100787.72
2022-12-12T01:58:45.777Z,100784.59
2022-12-12T02:02:57.435Z,100793.03
2022-12-12T02:07:09.523Z,100795.34
2022-12-12T02:11:21.145Z,100788.56
2022-12-12T02:15:45.013Z,100790.88
2022-12-12T02:20:35.874Z,100791.22
2022-12-12T02:25:12.316Z,100801.47
2022-12-12T02:29:50.286Z,100786.25
2022-12-12T02:34:13.092Z,100794.69
2022-12-12T02:38:52.674Z,100799.34
2022-12-12T02:43:25.857Z,100798.31
2022-12-12T02:47:45.295Z,100809.56
2022-12-12T02:51:59.413Z,100805.09
2022-12-12T02:56:45.047Z,100802.13
2022-12-12T03:01:14.922Z,100799.66
2022-12-12T03:05:54.252Z,100799.31
2022-12-12T03:10:30.924Z,100797.50
2022-12-12T03:14:50.103Z,100805.13
2022-12-12T03:19:29.100Z,100801.63
2022-12-12T03:23:46.535Z,100800.63
2022-12-12T03:28:07.007Z,100807.75
2022-12-12T03:32:23.679Z,100795.78
2022-12-12T03:36:41.810Z,100806.53
2022-12-12T03:40:58.160Z,100811.31
2022-12-12T03:45:21.030Z,100817.69
2022-12-12T03:49:46.784Z,100809.34
2022-12-12T03:54:24.792Z,100813.78
2022-12-12T03:58:50.052Z,100814.53
2022-12-12T04:03:15.731Z,100808.00
2022-12-12T04:07:37.624Z,100816.56
2022-12-12T04:12:13.846Z,100811.63
2022-12-12T04:16:36.822Z,100819.00
2022-12-12T04:21:50.691Z,100821.16
2022-12-12T04:26:23.595Z,100822.59
2022-12-12T04:30:37.139Z,100819.72
2022-12-12T04:35:04.034Z,100818.53
2022-12-12T04:39:19.535Z,100807.38
2022-12-12T04:43:37.637Z,100822.38
2022-12-12T04:47:52.072Z,100830.00
2022-12-12T04:52:11.514Z,100832.94
2022-12-12T04:56:27.438Z,100827.47
2022-12-12T05:00:59.619Z,100828.72
2022-12-12T05:05:17.525Z,100830.84
2022-12-12T05:09:29.385Z,100826.84
2022-12-12T05:13:42.910Z,100839.06
2022-12-12T05:18:07.456Z,100841.34
2022-12-12T05:22:18.945Z,100844.94
2022-12-12T05:26:32.848Z,100850.81
2022-12-12T05:30:44.399Z,100854.88
2022-12-12T05:34:55.923Z,100853.69
2022-12-12T05:39:07.403Z,100843.03
2022-12-12T05:43:18.870Z,100842.47
2022-12-12T05:47:30.385Z,100849.19
2022-12-12T05:51:41.897Z,100853.78
2022-12-12T05:55:53.464Z,100851.72
2022-12-12T06:00:05.512Z,100856.31
2022-12-12T06:04:17.038Z,100851.78
2022-12-12T06:08:30.119Z,100859.56
2022-12-12T06:12:41.810Z,100859.28
2022-12-12T06:16:53.367Z,100863.75
2022-12-12T06:21:09.693Z,100855.72
2022-12-12T06:25:21.250Z,100846.31
2022-12-12T06:29:33.039Z,100863.78
2022-12-12T06:33:44.972Z,100865.19
2022-12-12T06:37:56.575Z,100849.56
2022-12-12T06:42:08.229Z,100848.34
2022-12-12T06:46:23.333Z,100871.72
2022-12-12T06:50:38.837Z,100856.25
2022-12-12T06:54:50.400Z,100870.66
2022-12-12T06:59:02.019Z,100873.16
2022-12-12T07:03:13.687Z,100866.78
2022-12-12T07:07:25.291Z,100868.06
2022-12-12T07:11:38.885Z,100885.53
2022-12-12T07:15:50.911Z,100879.88
2022-12-12T07:20:02.661Z,100882.78
2022-12-12T07:24:15.759Z,100886.53
2022-12-12T07:28:27.457Z,100882.66
2022-12-12T07:32:39.076Z,100890.72
2022-12-12T07:36:50.729Z,100893.47
2022-12-12T07:41:07.499Z,100907.34
2022-12-12T07:45:19.655Z,100906.66
2022-12-12T07:49:31.678Z,100910.13
2022-12-12T07:53:43.356Z,100919.38
2022-12-12T07:57:55.127Z,100922.56
2022-12-12T08:02:07.024Z,100935.88
2022-12-12T08:06:19.953Z,100930.47
2022-12-12T08:10:31.658Z,100937.50
2022-12-12T08:14:43.268Z,100937.50
2022-12-12T08:18:57.259Z,100949.94
2022-12-12T08:23:08.900Z,100953.09
2022-12-12T08:27:20.476Z,100936.84
2022-12-12T08:31:32.674Z,100949.56
2022-12-12T08:35:44.443Z,100937.69
2022-12-12T08:39:56.044Z,100936.84
2022-12-12T08:44:08.575Z,100951.78
2022-12-12T08:48:20.653Z,100958.53
2022-12-12T08:52:32.285Z,100950.34
2022-12-12T08:56:44.010Z,100947.00
2022-12-12T09:00:56.666Z,100960.16
2022-12-12T09:05:09.069Z,100952.47
2022-12-12T09:09:20.612Z,100956.59
2022-12-12T09:13:32.242Z,100955.72
2022-12-12T09:17:43.919Z,100957.63
2022-12-12T09:21:55.509Z,100955.88
2022-12-12T09:26:08.992Z,100959.16
2022-12-12T09:30:21.943Z,100965.34
2022-12-12T09:34:34.382Z,100948.53
2022-12-12T09:38:45.991Z,100955.84
2022-12-12T09:42:58.859Z,100957.97
2022-12-12T09:47:20.175Z,100968.72
2022-12-12T09:51:31.937Z,100957.44
2022-12-12T09:55:58.732Z,100965.88
2022-12-12T10:00:13.279Z,100972.63
2022-12-12T10:04:50.743Z,100956.84
2022-12-12T10:09:21.952Z,100971.91
2022-12-12T10:13:36.120Z,100966.56
2022-12-12T10:17:48.569Z,100962.28
2022-12-12T10:22:24.097Z,100958.63
2022-12-12T10:26:35.962Z,100956.00
2022-12-12T10:31:32.393Z,100961.66
2022-12-12T10:36:18.977Z,100945.06
2022-12-12T10:40:51.944Z,100945.88
2022-12-12T10:45:47.126Z,100958.63
2022-12-12T10:50:13.444Z,100934.09
2022-12-12T10:54:27.628Z,100943.69
2022-12-12T10:58:42.445Z,100941.91
2022-12-12T11:03:00.297Z,100948.19
2022-12-12T11:07:20.236Z,100937.75
2022-12-12T11:11:32.264Z,100921.84
2022-12-12T11:15:59.756Z,100926.16
2022-12-12T11:20:18.386Z,100920.38
2022-12-12T11:24:33.073Z,100938.25
2022-12-12T11:28:52.002Z,100912.44
2022-12-12T11:33:07.379Z,100916.75
2022-12-12T11:37:21.743Z,100916.59
2022-12-12T11:42:02.083Z,100901.66
2022-12-12T11:46:13.574Z,100918.88
2022-12-12T11:50:30.347Z,100914.56
2022-12-12T11:54:41.922Z,100915.88
2022-12-12T11:58:59.304Z,100925.00
2022-12-12T12:03:27.073Z,100919.53
2022-12-12T12:07:44.942Z,100928.31
2022-12-12T12:12:07.107Z,100917.38
2022-12-12T12:16:46.624Z,100923.34
2022-12-12T12:21:26.882Z,100909.91
2022-12-12T12:25:58.362Z,100911.38
2022-12-12T12:30:24.022Z,100906.75
2022-12-12T12:35:12.664Z,100920.19
2022-12-12T12:39:27.536Z,100907.94
2022-12-12T12:44:13.074Z,100905.44
2022-12-12T12:48:37.333Z,100909.06
2022-12-12T12:53:08.121Z,100911.22
2022-12-12T12:57:28.016Z,100921.31
2022-12-12T13:01:44.815Z,100920.34
2022-12-12T13:06:03.753Z,100898.97
2022-12-12T13:10:18.007Z,100902.28
2022-12-12T13:14:58.369Z,100893.81
2022-12-12T13:19:29.227Z,100887.69
2022-12-12T13:24:00.541Z,100890.03
2022-12-12T13:28:17.699Z,100887.38
2022-12-12T13:32:56.049Z,100893.84
2022-12-12T13:37:07.639Z,100894.84
2022-12-12T13:41:19.290Z,100892.50
2022-12-12T13:45:46.128Z,100909.56
2022-12-12T13:50:27.285Z,100916.50
2022-12-12T13:54:44.047Z,100909.75
2022-12-12T13:58:56.216Z,100911.06
2022-12-12T14:03:10.881Z,100903.28
2022-12-12T14:07:25.492Z,100892.47
2022-12-12T14:11:37.521Z,100892.16
2022-12-12T14:15:50.665Z,100895.13
2022-12-12T14:20:04.798Z,100893.78
2022-12-12T14:24:56.999Z,100898.78
2022-12-12T14:29:17.639Z,100903.56
2022-12-12T14:33:41.343Z,100898.06
2022-12-12T14:38:18.253Z,100905.31
2022-12-12T14:43:21.413Z,100915.91
2022-12-12T14:47:07.456Z,100913.56
2022-12-12T14:51:34.897Z,100903.81
2022-12-12T14:55:51.588Z,100909.59
2022-12-12T15:00:04.463Z,100914.53
2022-12-12T15:04:22.461Z,100908.38
2022-12-12T15:08:33.955Z,100909.81
2022-12-12T15:12:45.610Z,100916.22
2022-12-12T15:17:05.338Z,100926.28
2022-12-12T15:21:17.638Z,100935.19
2022-12-12T15:25:32.861Z,100934.94
2022-12-12T15:29:44.477Z,100933.41
2022-12-12T15:33:56.042Z,100946.72
2022-12-12T15:38:12.647Z,100949.16
2022-12-12T15:42:24.602Z,100945.28
2022-12-12T15:46:36.365Z,100948.22
2022-12-12T15:51:06.758Z,100952.72
2022-12-12T15:55:21.493Z,100940.44
2022-12-12T15:59:33.502Z,100943.97
2022-12-12T16:04:01.585Z,100944.75
2022-12-12T16:08:32.200Z,100942.69
2022-12-12T16:13:21.836Z,100936.19
2022-12-12T16:17:33.433Z,100936.56
2022-12-12T16:21:45.149Z,100938.31
2022-12-12T16:25:57.706Z,100954.16
2022-12-12T16:30:13.316Z,100934.75
2022-12-12T16:34:25.039Z,100944.31
2022-12-12T16:38:40.049Z,100938.13
2022-12-12T16:43:07.725Z,100948.22
2022-12-12T16:47:23.981Z,100964.75
2022-12-12T16:51:35.724Z,100963.84
2022-12-12T16:55:49.717Z,100958.59
2022-12-12T17:00:01.184Z,100964.97
2022-12-12T17:04:21.447Z,100961.16
2022-12-12T17:08:33.079Z,100963.94
2022-12-12T17:12:44.915Z,100953.72
2022-12-12T17:16:56.533Z,100939.97
2022-12-12T17:21:09.094Z,100942.97
2022-12-12T17:25:22.660Z,100925.41
2022-12-12T17:29:34.216Z,100941.72
2022-12-12T17:33:51.083Z,100943.81
2022-12-12T17:38:03.436Z,100946.91
2022-12-12T17:42:15.500Z,100942.78
2022-12-12T17:46:28.647Z,100946.56
2022-12-12T17:50:41.921Z,100948.38
2022-12-12T17:55:55.297Z,100946.56
2022-12-12T17:59:25.083Z,100940.22
2022-12-12T18:03:37.255Z,100943.38
2022-12-12T18:07:48.793Z,100941.72
2022-12-12T18:12:00.367Z,100931.34
2022-12-12T18:16:12.927Z,100928.94
2022-12-12T18:20:29.528Z,100926.19
2022-12-12T18:24:42.696Z,100925.63
2022-12-12T18:28:57.034Z,100924.78
2022-12-12T18:33:09.057Z,100929.69
2022-12-12T18:37:20.996Z,100933.44
2022-12-12T18:41:33.080Z,100937.03
2022-12-12T18:45:44.657Z,100931.50
2022-12-12T18:49:56.217Z,100937.75
2022-12-12T18:54:14.325Z,100939.56
2022-12-12T18:58:26.629Z,100955.13
2022-12-12T19:02:40.361Z,100929.34
2022-12-12T19:06:52.277Z,100942.66
2022-12-12T19:11:04.211Z,100951.09
2022-12-12T19:15:17.165Z,100935.88
2022-12-12T19:19:29.304Z,100943.06
2022-12-12T19:23:41.376Z,100951.13
2022-12-12T19:27:53.122Z,100936.56
2022-12-12T19:32:05.453Z,100941.41
2022-12-12T19:36:20.142Z,100939.88
2022-12-12T19:40:31.643Z,100943.06
2022-12-12T19:44:43.696Z,100939.06
2022-12-12T19:49:00.539Z,100944.19
2022-12-12T19:53:12.104Z,100937.41
2022-12-12T19:57:26.234Z,100941.97
2022-12-12T20:01:37.942Z,100938.63
2022-12-12T20:05:59.252Z,100945.72
2022-12-12T20:10:10.896Z,100942.53
2022-12-12T20:14:25.396Z,100941.03
2022-12-12T20:18:37.809Z,100951.69
2022-12-12T20:22:49.253Z,100953.75
2022-12-12T20:27:03.719Z,100958.75
2022-12-12T20:31:18.490Z,100966.94
2022-12-12T20:35:30.070Z,100965.81
2022-12-12T20:39:41.667Z,100939.34
2022-12-12T20:43:54.959Z,100970.78
2022-12-12T20:48:07.911Z,100972.59
2022-12-12T20:52:20.457Z,100962.22
2022-12-12T20:56:32.422Z,100967.31
2022-12-12T21:00:43.918Z,100972.31
2022-12-12T21:04:55.362Z,100968.84
2022-12-12T21:09:09.330Z,100962.06
2022-12-12T21:13:21.088Z,100970.25
2022-12-12T21:17:32.615Z,100961.66
2022-12-12T21:21:44.851Z,100958.34
2022-12-12T21:25:56.395Z,100966.50
2022-12-12T21:30:08.386Z,100967.47
2022-12-12T21:34:21.934Z,100970.50
2022-12-12T21:38:33.822Z,100966.75
2022-12-12T21:42:45.409Z,100967.03
2022-12-12T21:46:57.056Z,100971.59
2022-12-12T21:51:14.521Z,100964.38
2022-12-12T21:55:26.060Z,100970.63
2022-12-12T21:59:38.659Z,100962.72
2022-12-12T22:03:50.484Z,100967.53
2022-12-12T22:08:02.185Z,100953.50
2022-12-12T22:12:13.818Z,100964.19
2022-12-12T22:16:33.392Z,100961.13
2022-12-12T22:20:44.987Z,100950.44
2022-12-12T22:24:56.558Z,100960.94
2022-12-12T22:29:13.897Z,100968.97
2022-12-12T22:33:25.525Z,100958.44
2022-12-12T22:37:37.130Z,100978.25
2022-12-12T22:41:50.663Z,100973.81
2022-12-12T22:46:04.986Z,100974.06
2022-12-12T22:50:17.867Z,100973.38
2022-12-12T22:54:31.776Z,100961.31
2022-12-12T22:58:44.293Z,100964.91
2022-12-12T23:02:58.947Z,100966.97
2022-12-12T23:07:10.888Z,100957.84
2022-12-12T23:11:24.611Z,100967.25
2022-12-12T23:15:38.686Z,100961.53
2022-12-12T23:19:50.268Z,100957.13
2022-12-12T23:24:02.004Z,100940.41
2022-12-12T23:28:14.101Z,100942.19
2022-12-12T23:32:26.027Z,100932.63
2022-12-12T23:36:38.202Z,100930.84
2022-12-12T23:40:49.872Z,100922.25
2022-12-12T23:45:01.385Z,100921.41
2022-12-12T23:49:12.877Z,100933.59
2022-12-12T23:53:24.676Z,100930.66
2022-12-12T23:57:36.248Z,100931.50
